Prosperity, West Virginia
Current Conditions -  °F | °C
As of 4:51 AM on Saturday 29 Nov 2014 (Local Time) from KBKW Reporting Station
Broken Clouds Broken Clouds  
Wind Chill: 32°   Ceiling: 12000
Heat Index: 32°   Visibility: 10mi
Dew Point: 19°   Wind: 0mph
Humidity: 59%   Direction: NA
Pressure: 30.14"   Gusts: NA
Location:  37.84°N, 81.2°W
Report Text: KBKW 290951Z AUTO 00000KT 10SM BKN120 00/M07 A3014 RMK AO2 SLP236 T00001072
Loading
Personal Weather Stations






























Interactive Weather Map New forecast layout! Learn more

10-Day Weather Forecast

Advertisements
Track Severe Weather on mobile